sensor_id;sensor_type;location;lat;lon;timestamp;P1;durP1;ratioP1;P2;durP2;ratioP2
46505;SDS011;32220;49.808;9.968;2023-04-24T00:01:33;1.30;;;1.00;;
46505;SDS011;32220;49.808;9.968;2023-04-24T00:04:02;1.20;;;1.00;;
46505;SDS011;32220;49.808;9.968;2023-04-24T00:06:30;1.63;;;1.00;;
46505;SDS011;32220;49.808;9.968;2023-04-24T00:09:01;0.97;;;0.80;;
46505;SDS011;32220;49.808;9.968;2023-04-24T00:11:29;1.10;;;0.70;;
46505;SDS011;32220;49.808;9.968;2023-04-24T00:13:57;1.40;;;0.93;;
46505;SDS011;32220;49.808;9.968;2023-04-24T00:16:24;2.87;;;0.90;;
46505;SDS011;32220;49.808;9.968;2023-04-24T00:18:52;3.20;;;1.00;;
46505;SDS011;32220;49.808;9.968;2023-04-24T00:21:22;1.00;;;1.00;;
46505;SDS011;32220;49.808;9.968;2023-04-24T00:23:51;1.00;;;0.90;;
46505;SDS011;32220;49.808;9.968;2023-04-24T00:26:21;2.10;;;0.80;;
46505;SDS011;32220;49.808;9.968;2023-04-24T00:28:49;1.20;;;0.90;;
46505;SDS011;32220;49.808;9.968;2023-04-24T00:31:16;1.47;;;0.83;;
46505;SDS011;32220;49.808;9.968;2023-04-24T00:33:46;2.70;;;1.03;;
46505;SDS011;32220;49.808;9.968;2023-04-24T00:36:13;2.10;;;1.20;;
46505;SDS011;32220;49.808;9.968;2023-04-24T00:38:41;0.70;;;0.70;;
46505;SDS011;32220;49.808;9.968;2023-04-24T00:41:09;2.03;;;0.90;;
46505;SDS011;32220;49.808;9.968;2023-04-24T00:43:38;0.70;;;0.70;;
46505;SDS011;32220;49.808;9.968;2023-04-24T00:46:07;1.30;;;0.70;;
46505;SDS011;32220;49.808;9.968;2023-04-24T00:48:34;0.70;;;0.70;;
46505;SDS011;32220;49.808;9.968;2023-04-24T00:51:02;1.43;;;0.90;;
46505;SDS011;32220;49.808;9.968;2023-04-24T00:53:30;0.87;;;0.73;;
46505;SDS011;32220;49.808;9.968;2023-04-24T00:55:58;1.33;;;1.23;;
46505;SDS011;32220;49.808;9.968;2023-04-24T00:58:27;1.00;;;0.70;;
46505;SDS011;32220;49.808;9.968;2023-04-24T01:00:57;1.33;;;0.80;;
46505;SDS011;32220;49.808;9.968;2023-04-24T01:03:29;1.37;;;0.70;;
46505;SDS011;32220;49.808;9.968;2023-04-24T01:05:58;1.23;;;0.70;;
46505;SDS011;32220;49.808;9.968;2023-04-24T01:08:26;0.83;;;0.77;;
46505;SDS011;32220;49.808;9.968;2023-04-24T01:10:56;1.10;;;0.90;;
46505;SDS011;32220;49.808;9.968;2023-04-24T01:13:24;1.00;;;0.70;;
46505;SDS011;32220;49.808;9.968;2023-04-24T01:15:52;1.30;;;0.67;;
46505;SDS011;32220;49.808;9.968;2023-04-24T01:18:21;0.70;;;0.60;;
46505;SDS011;32220;49.808;9.968;2023-04-24T01:20:50;0.97;;;0.80;;
46505;SDS011;32220;49.808;9.968;2023-04-24T01:23:21;1.80;;;0.87;;
46505;SDS011;32220;49.808;9.968;2023-04-24T01:25:50;1.67;;;0.80;;
46505;SDS011;32220;49.808;9.968;2023-04-24T01:28:18;1.23;;;0.60;;
46505;SDS011;32220;49.808;9.968;2023-04-24T01:30:46;1.80;;;0.97;;
46505;SDS011;32220;49.808;9.968;2023-04-24T01:33:14;1.13;;;0.80;;
46505;SDS011;32220;49.808;9.968;2023-04-24T01:35:42;3.67;;;0.90;;
46505;SDS011;32220;49.808;9.968;2023-04-24T01:38:10;1.20;;;0.70;;
46505;SDS011;32220;49.808;9.968;2023-04-24T01:40:39;2.00;;;0.90;;
46505;SDS011;32220;49.808;9.968;2023-04-24T01:43:07;0.67;;;0.60;;
46505;SDS011;32220;49.808;9.968;2023-04-24T01:45:35;1.67;;;0.80;;
46505;SDS011;32220;49.808;9.968;2023-04-24T01:48:04;2.27;;;0.90;;
46505;SDS011;32220;49.808;9.968;2023-04-24T01:50:32;0.73;;;0.70;;
46505;SDS011;32220;49.808;9.968;2023-04-24T01:52:59;1.57;;;0.73;;
46505;SDS011;32220;49.808;9.968;2023-04-24T01:55:27;1.47;;;0.80;;
46505;SDS011;32220;49.808;9.968;2023-04-24T01:57:56;0.77;;;0.70;;
46505;SDS011;32220;49.808;9.968;2023-04-24T02:00:24;1.37;;;0.90;;
46505;SDS011;32220;49.808;9.968;2023-04-24T02:02:53;1.80;;;0.80;;
46505;SDS011;32220;49.808;9.968;2023-04-24T02:05:20;0.80;;;0.80;;
46505;SDS011;32220;49.808;9.968;2023-04-24T02:07:48;1.60;;;0.80;;
46505;SDS011;32220;49.808;9.968;2023-04-24T02:10:15;1.43;;;0.90;;
46505;SDS011;32220;49.808;9.968;2023-04-24T02:12:43;1.67;;;1.30;;
46505;SDS011;32220;49.808;9.968;2023-04-24T02:15:12;0.77;;;0.67;;
46505;SDS011;32220;49.808;9.968;2023-04-24T02:17:40;1.10;;;0.73;;
46505;SDS011;32220;49.808;9.968;2023-04-24T02:20:08;0.60;;;0.60;;
46505;SDS011;32220;49.808;9.968;2023-04-24T02:22:38;0.77;;;0.77;;
46505;SDS011;32220;49.808;9.968;2023-04-24T02:25:05;0.60;;;0.60;;
46505;SDS011;32220;49.808;9.968;2023-04-24T02:27:34;1.27;;;0.67;;
46505;SDS011;32220;49.808;9.968;2023-04-24T02:30:05;0.63;;;0.63;;
46505;SDS011;32220;49.808;9.968;2023-04-24T02:32:35;1.43;;;0.70;;
46505;SDS011;32220;49.808;9.968;2023-04-24T02:35:03;0.70;;;0.67;;
46505;SDS011;32220;49.808;9.968;2023-04-24T02:37:31;0.60;;;0.60;;
46505;SDS011;32220;49.808;9.968;2023-04-24T02:39:59;1.30;;;0.87;;
46505;SDS011;32220;49.808;9.968;2023-04-24T02:42:27;1.47;;;0.80;;
46505;SDS011;32220;49.808;9.968;2023-04-24T02:44:54;1.03;;;0.70;;
46505;SDS011;32220;49.808;9.968;2023-04-24T02:47:22;1.93;;;0.70;;
46505;SDS011;32220;49.808;9.968;2023-04-24T02:49:51;1.43;;;0.80;;
46505;SDS011;32220;49.808;9.968;2023-04-24T02:52:19;1.27;;;0.80;;
46505;SDS011;32220;49.808;9.968;2023-04-24T02:54:46;0.60;;;0.60;;
46505;SDS011;32220;49.808;9.968;2023-04-24T02:57:14;1.40;;;0.90;;
46505;SDS011;32220;49.808;9.968;2023-04-24T02:59:42;0.70;;;0.70;;
46505;SDS011;32220;49.808;9.968;2023-04-24T03:02:10;1.03;;;0.57;;
46505;SDS011;32220;49.808;9.968;2023-04-24T03:04:38;1.30;;;0.80;;
46505;SDS011;32220;49.808;9.968;2023-04-24T03:07:07;1.60;;;0.80;;
46505;SDS011;32220;49.808;9.968;2023-04-24T03:09:34;1.03;;;1.00;;
46505;SDS011;32220;49.808;9.968;2023-04-24T03:12:02;1.47;;;0.70;;
46505;SDS011;32220;49.808;9.968;2023-04-24T03:14:30;0.43;;;0.43;;
46505;SDS011;32220;49.808;9.968;2023-04-24T03:16:58;1.07;;;0.70;;
46505;SDS011;32220;49.808;9.968;2023-04-24T03:19:26;1.27;;;0.80;;
46505;SDS011;32220;49.808;9.968;2023-04-24T03:22:06;1.60;;;0.90;;
46505;SDS011;32220;49.808;9.968;2023-04-24T03:24:35;1.47;;;1.00;;
46505;SDS011;32220;49.808;9.968;2023-04-24T03:27:03;1.20;;;1.10;;
46505;SDS011;32220;49.808;9.968;2023-04-24T03:29:49;1.00;;;0.63;;
46505;SDS011;32220;49.808;9.968;2023-04-24T03:32:20;2.30;;;0.70;;
46505;SDS011;32220;49.808;9.968;2023-04-24T03:34:49;1.70;;;1.10;;
46505;SDS011;32220;49.808;9.968;2023-04-24T03:37:18;1.53;;;0.57;;
46505;SDS011;32220;49.808;9.968;2023-04-24T03:39:54;1.90;;;1.00;;
46505;SDS011;32220;49.808;9.968;2023-04-24T03:42:24;0.73;;;0.60;;
46505;SDS011;32220;49.808;9.968;2023-04-24T03:44:55;1.77;;;0.90;;
46505;SDS011;32220;49.808;9.968;2023-04-24T03:47:27;1.13;;;0.70;;
46505;SDS011;32220;49.808;9.968;2023-04-24T03:49:57;3.30;;;0.80;;
46505;SDS011;32220;49.808;9.968;2023-04-24T03:52:26;2.00;;;0.80;;
46505;SDS011;32220;49.808;9.968;2023-04-24T03:54:54;0.60;;;0.60;;
46505;SDS011;32220;49.808;9.968;2023-04-24T03:57:23;0.83;;;0.57;;
46505;SDS011;32220;49.808;9.968;2023-04-24T04:00:06;1.43;;;0.70;;
46505;SDS011;32220;49.808;9.968;2023-04-24T04:02:40;1.63;;;0.70;;
46505;SDS011;32220;49.808;9.968;2023-04-24T04:05:09;3.70;;;0.90;;
46505;SDS011;32220;49.808;9.968;2023-04-24T04:07:38;2.00;;;0.63;;
46505;SDS011;32220;49.808;9.968;2023-04-24T04:10:06;1.23;;;0.40;;
46505;SDS011;32220;49.808;9.968;2023-04-24T04:12:36;1.10;;;0.70;;
46505;SDS011;32220;49.808;9.968;2023-04-24T04:15:04;0.60;;;0.60;;
46505;SDS011;32220;49.808;9.968;2023-04-24T04:17:33;1.00;;;0.80;;
46505;SDS011;32220;49.808;9.968;2023-04-24T04:20:05;1.57;;;0.83;;
46505;SDS011;32220;49.808;9.968;2023-04-24T04:22:38;1.47;;;1.07;;
46505;SDS011;32220;49.808;9.968;2023-04-24T04:25:08;2.33;;;0.93;;
46505;SDS011;32220;49.808;9.968;2023-04-24T04:27:37;1.10;;;0.70;;
46505;SDS011;32220;49.808;9.968;2023-04-24T04:30:10;3.27;;;0.80;;
46505;SDS011;32220;49.808;9.968;2023-04-24T04:32:48;0.73;;;0.70;;
46505;SDS011;32220;49.808;9.968;2023-04-24T04:35:16;1.00;;;0.70;;
46505;SDS011;32220;49.808;9.968;2023-04-24T04:37:46;1.10;;;0.70;;
46505;SDS011;32220;49.808;9.968;2023-04-24T04:40:30;2.07;;;0.83;;
46505;SDS011;32220;49.808;9.968;2023-04-24T04:43:02;0.80;;;0.70;;
46505;SDS011;32220;49.808;9.968;2023-04-24T04:45:37;3.03;;;1.43;;
46505;SDS011;32220;49.808;9.968;2023-04-24T04:48:35;1.70;;;1.10;;
46505;SDS011;32220;49.808;9.968;2023-04-24T04:51:05;1.43;;;0.60;;
46505;SDS011;32220;49.808;9.968;2023-04-24T04:53:34;1.87;;;0.60;;
46505;SDS011;32220;49.808;9.968;2023-04-24T04:56:02;1.20;;;0.80;;
46505;SDS011;32220;49.808;9.968;2023-04-24T04:58:40;2.73;;;0.70;;
46505;SDS011;32220;49.808;9.968;2023-04-24T05:01:10;3.83;;;1.00;;
46505;SDS011;32220;49.808;9.968;2023-04-24T05:03:41;1.97;;;0.80;;
46505;SDS011;32220;49.808;9.968;2023-04-24T05:06:12;1.00;;;0.80;;
46505;SDS011;32220;49.808;9.968;2023-04-24T05:08:42;1.23;;;0.90;;
46505;SDS011;32220;49.808;9.968;2023-04-24T05:11:18;1.33;;;1.00;;
46505;SDS011;32220;49.808;9.968;2023-04-24T05:13:46;2.80;;;0.93;;
46505;SDS011;32220;49.808;9.968;2023-04-24T05:16:18;1.80;;;1.20;;
46505;SDS011;32220;49.808;9.968;2023-04-24T05:18:48;1.30;;;1.00;;
46505;SDS011;32220;49.808;9.968;2023-04-24T05:21:19;1.73;;;1.00;;
46505;SDS011;32220;49.808;9.968;2023-04-24T05:23:51;1.60;;;0.80;;
46505;SDS011;32220;49.808;9.968;2023-04-24T05:26:36;0.83;;;0.83;;
46505;SDS011;32220;49.808;9.968;2023-04-24T05:29:04;2.30;;;0.80;;
46505;SDS011;32220;49.808;9.968;2023-04-24T05:31:32;1.47;;;1.10;;
46505;SDS011;32220;49.808;9.968;2023-04-24T05:33:59;1.53;;;1.00;;
46505;SDS011;32220;49.808;9.968;2023-04-24T05:36:27;0.80;;;0.80;;
46505;SDS011;32220;49.808;9.968;2023-04-24T05:38:56;1.17;;;0.80;;
46505;SDS011;32220;49.808;9.968;2023-04-24T05:41:25;2.30;;;0.93;;
46505;SDS011;32220;49.808;9.968;2023-04-24T05:43:52;1.27;;;1.07;;
46505;SDS011;32220;49.808;9.968;2023-04-24T05:46:20;2.00;;;1.00;;
46505;SDS011;32220;49.808;9.968;2023-04-24T05:48:49;1.47;;;0.80;;
46505;SDS011;32220;49.808;9.968;2023-04-24T05:51:16;1.43;;;1.00;;
46505;SDS011;32220;49.808;9.968;2023-04-24T05:53:44;1.13;;;1.03;;
46505;SDS011;32220;49.808;9.968;2023-04-24T05:56:13;2.07;;;1.57;;
46505;SDS011;32220;49.808;9.968;2023-04-24T05:58:41;1.90;;;1.13;;
46505;SDS011;32220;49.808;9.968;2023-04-24T06:01:09;1.43;;;0.90;;
46505;SDS011;32220;49.808;9.968;2023-04-24T06:03:38;1.30;;;1.00;;
46505;SDS011;32220;49.808;9.968;2023-04-24T06:06:06;2.30;;;1.40;;
46505;SDS011;32220;49.808;9.968;2023-04-24T06:08:35;1.00;;;0.90;;
46505;SDS011;32220;49.808;9.968;2023-04-24T06:11:03;3.40;;;1.13;;
46505;SDS011;32220;49.808;9.968;2023-04-24T06:13:33;1.03;;;0.93;;
46505;SDS011;32220;49.808;9.968;2023-04-24T06:16:20;1.67;;;0.90;;
46505;SDS011;32220;49.808;9.968;2023-04-24T06:18:55;2.13;;;1.10;;
46505;SDS011;32220;49.808;9.968;2023-04-24T06:21:23;2.43;;;1.00;;
46505;SDS011;32220;49.808;9.968;2023-04-24T06:23:51;3.43;;;2.87;;
46505;SDS011;32220;49.808;9.968;2023-04-24T06:26:18;0.90;;;0.90;;
46505;SDS011;32220;49.808;9.968;2023-04-24T06:28:48;1.53;;;1.10;;
46505;SDS011;32220;49.808;9.968;2023-04-24T06:31:16;1.27;;;1.13;;
46505;SDS011;32220;49.808;9.968;2023-04-24T06:33:43;1.33;;;1.17;;
46505;SDS011;32220;49.808;9.968;2023-04-24T06:36:11;1.10;;;1.00;;
46505;SDS011;32220;49.808;9.968;2023-04-24T06:38:39;1.37;;;1.00;;
46505;SDS011;32220;49.808;9.968;2023-04-24T06:41:06;1.20;;;1.10;;
46505;SDS011;32220;49.808;9.968;2023-04-24T06:43:33;2.40;;;0.90;;
46505;SDS011;32220;49.808;9.968;2023-04-24T06:46:02;1.20;;;1.10;;
46505;SDS011;32220;49.808;9.968;2023-04-24T06:48:30;1.20;;;1.10;;
46505;SDS011;32220;49.808;9.968;2023-04-24T06:50:57;1.30;;;1.20;;
46505;SDS011;32220;49.808;9.968;2023-04-24T06:53:25;2.30;;;1.00;;
46505;SDS011;32220;49.808;9.968;2023-04-24T06:55:53;1.47;;;1.20;;
46505;SDS011;32220;49.808;9.968;2023-04-24T06:58:34;1.50;;;1.30;;
46505;SDS011;32220;49.808;9.968;2023-04-24T07:01:03;1.20;;;1.10;;
46505;SDS011;32220;49.808;9.968;2023-04-24T07:03:31;1.83;;;1.27;;
46505;SDS011;32220;49.808;9.968;2023-04-24T07:06:04;2.87;;;1.93;;
46505;SDS011;32220;49.808;9.968;2023-04-24T07:08:42;2.70;;;1.13;;
46505;SDS011;32220;49.808;9.968;2023-04-24T07:11:34;5.07;;;2.37;;
46505;SDS011;32220;49.808;9.968;2023-04-24T07:14:36;3.30;;;1.10;;
46505;SDS011;32220;49.808;9.968;2023-04-24T07:17:13;1.57;;;1.00;;
46505;SDS011;32220;49.808;9.968;2023-04-24T07:23:04;2.90;;;1.40;;
46505;SDS011;32220;49.808;9.968;2023-04-24T07:25:32;2.40;;;1.30;;
46505;SDS011;32220;49.808;9.968;2023-04-24T07:28:00;1.47;;;1.20;;
46505;SDS011;32220;49.808;9.968;2023-04-24T07:30:30;1.67;;;1.40;;
46505;SDS011;32220;49.808;9.968;2023-04-24T07:33:00;1.43;;;1.33;;
46505;SDS011;32220;49.808;9.968;2023-04-24T07:35:27;1.63;;;1.20;;
46505;SDS011;32220;49.808;9.968;2023-04-24T07:37:55;1.87;;;1.33;;
46505;SDS011;32220;49.808;9.968;2023-04-24T07:40:22;1.90;;;1.40;;
46505;SDS011;32220;49.808;9.968;2023-04-24T07:42:50;1.83;;;1.40;;
46505;SDS011;32220;49.808;9.968;2023-04-24T07:45:23;1.43;;;1.33;;
46505;SDS011;32220;49.808;9.968;2023-04-24T07:47:54;3.07;;;1.53;;
46505;SDS011;32220;49.808;9.968;2023-04-24T07:50:23;1.83;;;1.60;;
46505;SDS011;32220;49.808;9.968;2023-04-24T07:52:51;1.60;;;1.50;;
46505;SDS011;32220;49.808;9.968;2023-04-24T07:55:18;1.63;;;1.40;;
46505;SDS011;32220;49.808;9.968;2023-04-24T07:57:46;1.77;;;1.67;;
46505;SDS011;32220;49.808;9.968;2023-04-24T08:00:13;2.13;;;1.40;;
46505;SDS011;32220;49.808;9.968;2023-04-24T08:02:41;1.43;;;1.20;;
46505;SDS011;32220;49.808;9.968;2023-04-24T08:05:09;1.60;;;1.50;;
46505;SDS011;32220;49.808;9.968;2023-04-24T08:07:55;1.57;;;1.43;;
46505;SDS011;32220;49.808;9.968;2023-04-24T08:10:30;1.83;;;1.60;;
46505;SDS011;32220;49.808;9.968;2023-04-24T08:12:58;1.50;;;1.40;;
46505;SDS011;32220;49.808;9.968;2023-04-24T08:15:27;3.10;;;1.80;;
46505;SDS011;32220;49.808;9.968;2023-04-24T08:17:55;1.87;;;1.60;;
46505;SDS011;32220;49.808;9.968;2023-04-24T08:20:22;2.63;;;1.40;;
46505;SDS011;32220;49.808;9.968;2023-04-24T08:22:50;1.60;;;1.40;;
46505;SDS011;32220;49.808;9.968;2023-04-24T08:25:19;1.80;;;1.70;;
46505;SDS011;32220;49.808;9.968;2023-04-24T08:27:48;3.30;;;2.10;;
46505;SDS011;32220;49.808;9.968;2023-04-24T08:30:16;2.33;;;1.67;;
46505;SDS011;32220;49.808;9.968;2023-04-24T08:32:44;2.70;;;1.80;;
46505;SDS011;32220;49.808;9.968;2023-04-24T08:35:13;1.70;;;1.60;;
46505;SDS011;32220;49.808;9.968;2023-04-24T08:37:41;1.60;;;1.50;;
46505;SDS011;32220;49.808;9.968;2023-04-24T08:40:11;3.13;;;1.73;;
46505;SDS011;32220;49.808;9.968;2023-04-24T08:42:42;2.87;;;1.80;;
46505;SDS011;32220;49.808;9.968;2023-04-24T08:45:11;1.93;;;1.30;;
46505;SDS011;32220;49.808;9.968;2023-04-24T08:47:40;1.83;;;1.73;;
46505;SDS011;32220;49.808;9.968;2023-04-24T08:50:08;2.43;;;1.47;;
46505;SDS011;32220;49.808;9.968;2023-04-24T08:52:38;1.50;;;1.40;;
46505;SDS011;32220;49.808;9.968;2023-04-24T08:55:06;1.53;;;1.43;;
46505;SDS011;32220;49.808;9.968;2023-04-24T08:57:34;1.70;;;1.60;;
46505;SDS011;32220;49.808;9.968;2023-04-24T09:00:07;1.50;;;1.40;;
46505;SDS011;32220;49.808;9.968;2023-04-24T09:02:36;1.70;;;1.60;;
46505;SDS011;32220;49.808;9.968;2023-04-24T09:05:04;3.60;;;1.40;;
46505;SDS011;32220;49.808;9.968;2023-04-24T09:07:32;2.63;;;1.13;;
46505;SDS011;32220;49.808;9.968;2023-04-24T09:10:03;2.20;;;1.20;;
46505;SDS011;32220;49.808;9.968;2023-04-24T09:12:31;1.10;;;0.97;;
46505;SDS011;32220;49.808;9.968;2023-04-24T09:14:58;1.20;;;1.10;;
46505;SDS011;32220;49.808;9.968;2023-04-24T09:17:29;2.97;;;1.10;;
46505;SDS011;32220;49.808;9.968;2023-04-24T09:19:57;1.20;;;0.83;;
46505;SDS011;32220;49.808;9.968;2023-04-24T09:22:25;1.53;;;1.00;;
46505;SDS011;32220;49.808;9.968;2023-04-24T09:25:00;1.70;;;1.00;;
46505;SDS011;32220;49.808;9.968;2023-04-24T09:27:31;1.20;;;0.90;;
46505;SDS011;32220;49.808;9.968;2023-04-24T09:29:59;1.27;;;1.15;;
46505;SDS011;32220;49.808;9.968;2023-04-24T09:32:29;0.90;;;0.90;;
46505;SDS011;32220;49.808;9.968;2023-04-24T09:35:07;1.02;;;1.02;;
46505;SDS011;32220;49.808;9.968;2023-04-24T09:37:37;0.70;;;0.70;;
46505;SDS011;32220;49.808;9.968;2023-04-24T09:40:12;0.90;;;0.90;;
46505;SDS011;32220;49.808;9.968;2023-04-24T09:42:46;1.03;;;1.03;;
46505;SDS011;32220;49.808;9.968;2023-04-24T09:45:18;0.90;;;0.90;;
46505;SDS011;32220;49.808;9.968;2023-04-24T09:47:50;0.90;;;0.90;;
46505;SDS011;32220;49.808;9.968;2023-04-24T09:50:18;1.50;;;0.90;;
46505;SDS011;32220;49.808;9.968;2023-04-24T09:52:47;2.07;;;1.10;;
46505;SDS011;32220;49.808;9.968;2023-04-24T09:55:24;2.03;;;1.10;;
46505;SDS011;32220;49.808;9.968;2023-04-24T09:57:54;0.80;;;0.80;;
46505;SDS011;32220;49.808;9.968;2023-04-24T10:00:23;1.73;;;1.10;;
46505;SDS011;32220;49.808;9.968;2023-04-24T10:02:58;0.90;;;0.90;;
46505;SDS011;32220;49.808;9.968;2023-04-24T10:05:28;2.03;;;1.10;;
46505;SDS011;32220;49.808;9.968;2023-04-24T10:07:57;1.20;;;1.00;;
46505;SDS011;32220;49.808;9.968;2023-04-24T10:10:27;1.03;;;0.93;;
46505;SDS011;32220;49.808;9.968;2023-04-24T10:12:55;1.20;;;1.10;;
46505;SDS011;32220;49.808;9.968;2023-04-24T10:15:24;1.97;;;0.93;;
46505;SDS011;32220;49.808;9.968;2023-04-24T10:17:53;1.30;;;1.20;;
46505;SDS011;32220;49.808;9.968;2023-04-24T10:20:24;4.70;;;1.40;;
46505;SDS011;32220;49.808;9.968;2023-04-24T10:22:53;1.47;;;1.37;;
46505;SDS011;32220;49.808;9.968;2023-04-24T10:25:21;2.97;;;1.33;;
46505;SDS011;32220;49.808;9.968;2023-04-24T10:27:51;1.63;;;1.23;;
46505;SDS011;32220;49.808;9.968;2023-04-24T10:30:23;1.43;;;1.33;;
46505;SDS011;32220;49.808;9.968;2023-04-24T10:32:50;1.73;;;1.30;;
46505;SDS011;32220;49.808;9.968;2023-04-24T10:35:18;1.53;;;1.30;;
46505;SDS011;32220;49.808;9.968;2023-04-24T10:37:50;1.37;;;1.27;;
46505;SDS011;32220;49.808;9.968;2023-04-24T10:40:25;2.13;;;1.00;;
46505;SDS011;32220;49.808;9.968;2023-04-24T10:42:53;1.40;;;1.13;;
46505;SDS011;32220;49.808;9.968;2023-04-24T10:45:21;2.47;;;1.20;;
46505;SDS011;32220;49.808;9.968;2023-04-24T10:47:51;2.60;;;1.57;;
46505;SDS011;32220;49.808;9.968;2023-04-24T10:50:43;1.60;;;1.50;;
46505;SDS011;32220;49.808;9.968;2023-04-24T10:53:14;2.90;;;1.30;;
46505;SDS011;32220;49.808;9.968;2023-04-24T10:55:44;2.17;;;1.60;;
46505;SDS011;32220;49.808;9.968;2023-04-24T10:58:13;3.70;;;1.40;;
46505;SDS011;32220;49.808;9.968;2023-04-24T11:00:43;4.23;;;1.63;;
46505;SDS011;32220;49.808;9.968;2023-04-24T11:05:58;1.57;;;1.47;;
46505;SDS011;32220;49.808;9.968;2023-04-24T11:08:29;2.03;;;1.37;;
46505;SDS011;32220;49.808;9.968;2023-04-24T11:10:59;1.50;;;1.40;;
46505;SDS011;32220;49.808;9.968;2023-04-24T11:16:29;1.77;;;1.20;;
46505;SDS011;32220;49.808;9.968;2023-04-24T11:19:03;1.47;;;1.23;;
46505;SDS011;32220;49.808;9.968;2023-04-24T11:21:32;1.67;;;1.23;;
46505;SDS011;32220;49.808;9.968;2023-04-24T11:24:25;2.20;;;1.20;;
46505;SDS011;32220;49.808;9.968;2023-04-24T11:26:55;2.30;;;1.40;;
46505;SDS011;32220;49.808;9.968;2023-04-24T11:29:38;2.50;;;1.27;;
46505;SDS011;32220;49.808;9.968;2023-04-24T11:32:17;1.70;;;1.60;;
46505;SDS011;32220;49.808;9.968;2023-04-24T11:34:46;2.00;;;1.53;;
46505;SDS011;32220;49.808;9.968;2023-04-24T11:37:14;3.70;;;1.27;;
46505;SDS011;32220;49.808;9.968;2023-04-24T11:39:44;1.40;;;1.30;;
46505;SDS011;32220;49.808;9.968;2023-04-24T11:42:13;1.93;;;1.33;;
46505;SDS011;32220;49.808;9.968;2023-04-24T11:44:42;1.90;;;1.77;;
46505;SDS011;32220;49.808;9.968;2023-04-24T11:47:10;2.37;;;1.30;;
46505;SDS011;32220;49.808;9.968;2023-04-24T11:49:38;1.50;;;1.40;;
46505;SDS011;32220;49.808;9.968;2023-04-24T11:52:06;2.53;;;1.60;;
46505;SDS011;32220;49.808;9.968;2023-04-24T11:54:34;1.80;;;1.63;;
46505;SDS011;32220;49.808;9.968;2023-04-24T11:57:05;2.30;;;1.50;;
46505;SDS011;32220;49.808;9.968;2023-04-24T11:59:36;1.40;;;1.30;;
46505;SDS011;32220;49.808;9.968;2023-04-24T12:02:04;1.77;;;1.17;;
46505;SDS011;32220;49.808;9.968;2023-04-24T12:04:39;1.40;;;1.30;;
46505;SDS011;32220;49.808;9.968;2023-04-24T12:07:07;1.60;;;1.50;;
46505;SDS011;32220;49.808;9.968;2023-04-24T12:09:42;1.30;;;1.20;;
46505;SDS011;32220;49.808;9.968;2023-04-24T12:12:13;1.00;;;0.97;;
46505;SDS011;32220;49.808;9.968;2023-04-24T12:14:42;1.17;;;1.00;;
46505;SDS011;32220;49.808;9.968;2023-04-24T12:17:16;1.30;;;1.07;;
46505;SDS011;32220;49.808;9.968;2023-04-24T12:19:45;1.93;;;1.20;;
46505;SDS011;32220;49.808;9.968;2023-04-24T12:22:14;1.90;;;1.10;;
46505;SDS011;32220;49.808;9.968;2023-04-24T12:24:58;2.37;;;1.00;;
46505;SDS011;32220;49.808;9.968;2023-04-24T12:27:32;1.63;;;1.00;;
46505;SDS011;32220;49.808;9.968;2023-04-24T12:30:00;1.10;;;1.00;;
46505;SDS011;32220;49.808;9.968;2023-04-24T12:32:29;0.97;;;0.90;;
46505;SDS011;32220;49.808;9.968;2023-04-24T12:34:57;1.50;;;1.00;;
46505;SDS011;32220;49.808;9.968;2023-04-24T12:37:25;1.03;;;0.93;;
46505;SDS011;32220;49.808;9.968;2023-04-24T12:40:00;2.53;;;1.00;;
46505;SDS011;32220;49.808;9.968;2023-04-24T12:42:31;1.23;;;0.90;;
46505;SDS011;32220;49.808;9.968;2023-04-24T12:45:02;1.43;;;0.80;;
46505;SDS011;32220;49.808;9.968;2023-04-24T12:47:32;1.30;;;0.80;;
46505;SDS011;32220;49.808;9.968;2023-04-24T12:50:17;1.00;;;1.00;;
46505;SDS011;32220;49.808;9.968;2023-04-24T12:52:45;0.83;;;0.80;;
46505;SDS011;32220;49.808;9.968;2023-04-24T12:55:13;0.87;;;0.80;;
46505;SDS011;32220;49.808;9.968;2023-04-24T12:57:42;2.50;;;0.80;;
46505;SDS011;32220;49.808;9.968;2023-04-24T13:00:10;1.93;;;0.83;;
46505;SDS011;32220;49.808;9.968;2023-04-24T13:02:38;1.43;;;1.20;;
46505;SDS011;32220;49.808;9.968;2023-04-24T13:05:06;1.40;;;1.30;;
46505;SDS011;32220;49.808;9.968;2023-04-24T13:07:35;1.63;;;1.00;;
46505;SDS011;32220;49.808;9.968;2023-04-24T13:10:03;1.10;;;1.00;;
46505;SDS011;32220;49.808;9.968;2023-04-24T13:12:31;1.20;;;1.10;;
46505;SDS011;32220;49.808;9.968;2023-04-24T13:15:02;2.10;;;1.10;;
46505;SDS011;32220;49.808;9.968;2023-04-24T13:17:48;1.40;;;1.30;;
46505;SDS011;32220;49.808;9.968;2023-04-24T13:20:15;1.10;;;1.00;;
46505;SDS011;32220;49.808;9.968;2023-04-24T13:22:51;1.47;;;1.10;;
46505;SDS011;32220;49.808;9.968;2023-04-24T13:25:20;1.20;;;1.10;;
46505;SDS011;32220;49.808;9.968;2023-04-24T13:28:05;2.17;;;1.13;;
46505;SDS011;32220;49.808;9.968;2023-04-24T13:30:34;2.03;;;1.20;;
46505;SDS011;32220;49.808;9.968;2023-04-24T13:33:02;1.43;;;1.27;;
46505;SDS011;32220;49.808;9.968;2023-04-24T13:35:30;2.50;;;1.30;;
46505;SDS011;32220;49.808;9.968;2023-04-24T13:38:01;1.67;;;1.40;;
46505;SDS011;32220;49.808;9.968;2023-04-24T13:40:31;1.20;;;1.10;;
46505;SDS011;32220;49.808;9.968;2023-04-24T13:43:00;3.70;;;1.30;;
46505;SDS011;32220;49.808;9.968;2023-04-24T13:45:27;2.23;;;1.40;;
46505;SDS011;32220;49.808;9.968;2023-04-24T13:47:57;1.13;;;1.03;;
46505;SDS011;32220;49.808;9.968;2023-04-24T13:50:24;1.50;;;1.40;;
46505;SDS011;32220;49.808;9.968;2023-04-24T13:52:52;1.43;;;1.33;;
46505;SDS011;32220;49.808;9.968;2023-04-24T13:55:20;1.40;;;1.30;;
46505;SDS011;32220;49.808;9.968;2023-04-24T13:57:48;3.60;;;1.43;;
46505;SDS011;32220;49.808;9.968;2023-04-24T14:00:16;2.00;;;1.80;;
46505;SDS011;32220;49.808;9.968;2023-04-24T14:02:45;1.50;;;1.40;;
46505;SDS011;32220;49.808;9.968;2023-04-24T14:05:27;1.43;;;1.33;;
46505;SDS011;32220;49.808;9.968;2023-04-24T14:07:55;1.67;;;1.27;;
46505;SDS011;32220;49.808;9.968;2023-04-24T14:10:22;1.27;;;1.17;;
46505;SDS011;32220;49.808;9.968;2023-04-24T14:12:51;1.33;;;1.23;;
46505;SDS011;32220;49.808;9.968;2023-04-24T14:15:19;1.17;;;1.07;;
46505;SDS011;32220;49.808;9.968;2023-04-24T14:17:47;1.30;;;1.20;;
46505;SDS011;32220;49.808;9.968;2023-04-24T14:20:15;2.37;;;1.30;;
46505;SDS011;32220;49.808;9.968;2023-04-24T14:22:44;1.53;;;1.40;;
46505;SDS011;32220;49.808;9.968;2023-04-24T14:25:11;1.43;;;1.33;;
46505;SDS011;32220;49.808;9.968;2023-04-24T14:27:39;1.80;;;1.40;;
46505;SDS011;32220;49.808;9.968;2023-04-24T14:30:07;1.80;;;1.60;;
46505;SDS011;32220;49.808;9.968;2023-04-24T14:32:35;1.90;;;1.70;;
46505;SDS011;32220;49.808;9.968;2023-04-24T14:35:03;2.03;;;1.93;;
46505;SDS011;32220;49.808;9.968;2023-04-24T14:37:32;3.53;;;2.27;;
46505;SDS011;32220;49.808;9.968;2023-04-24T14:40:01;2.10;;;1.90;;
46505;SDS011;32220;49.808;9.968;2023-04-24T14:42:30;2.03;;;1.80;;
46505;SDS011;32220;49.808;9.968;2023-04-24T14:44:57;2.23;;;1.77;;
46505;SDS011;32220;49.808;9.968;2023-04-24T14:47:25;2.47;;;1.93;;
46505;SDS011;32220;49.808;9.968;2023-04-24T14:49:53;3.83;;;2.00;;
46505;SDS011;32220;49.808;9.968;2023-04-24T14:52:21;1.50;;;1.40;;
46505;SDS011;32220;49.808;9.968;2023-04-24T14:54:49;2.53;;;2.00;;
46505;SDS011;32220;49.808;9.968;2023-04-24T14:57:18;1.83;;;1.73;;
46505;SDS011;32220;49.808;9.968;2023-04-24T14:59:49;2.47;;;1.40;;
46505;SDS011;32220;49.808;9.968;2023-04-24T15:02:16;1.33;;;1.17;;
46505;SDS011;32220;49.808;9.968;2023-04-24T15:04:44;1.17;;;1.10;;
46505;SDS011;32220;49.808;9.968;2023-04-24T15:07:12;1.83;;;1.40;;
46505;SDS011;32220;49.808;9.968;2023-04-24T15:09:40;1.10;;;1.10;;
46505;SDS011;32220;49.808;9.968;2023-04-24T15:12:08;1.50;;;1.40;;
46505;SDS011;32220;49.808;9.968;2023-04-24T15:14:40;2.07;;;1.40;;